createdAt,value
2019-05-14T00:00:26.279Z,99.90
2019-05-14T00:02:54.662Z,99.90
2019-05-14T00:05:23.058Z,99.90
2019-05-14T00:07:52.130Z,99.90
2019-05-14T00:10:21.853Z,99.90
2019-05-14T00:12:51.246Z,99.90
2019-05-14T00:15:21.642Z,99.90
2019-05-14T00:17:52.287Z,99.90
2019-05-14T00:20:22.596Z,99.90
2019-05-14T00:22:52.189Z,99.90
2019-05-14T00:25:22.012Z,99.90
2019-05-14T00:27:51.970Z,99.90
2019-05-14T00:30:22.069Z,99.90
2019-05-14T00:32:52.075Z,99.90
2019-05-14T00:35:21.488Z,99.90
2019-05-14T00:37:52.019Z,99.90
2019-05-14T00:40:22.022Z,99.90
2019-05-14T00:42:53.001Z,99.90
2019-05-14T00:45:21.804Z,99.90
2019-05-14T00:47:52.547Z,99.90
2019-05-14T00:50:21.641Z,99.90
2019-05-14T00:52:51.647Z,99.90
2019-05-14T00:55:22.255Z,99.90
2019-05-14T00:57:52.136Z,99.90
2019-05-14T01:00:22.051Z,99.90
2019-05-14T01:02:51.776Z,99.90
2019-05-14T01:05:21.577Z,99.90
2019-05-14T01:07:51.446Z,99.90
2019-05-14T01:10:22.086Z,99.90
2019-05-14T01:12:52.116Z,99.90
2019-05-14T01:15:21.714Z,99.90
2019-05-14T01:17:51.626Z,99.90
2019-05-14T01:20:21.322Z,99.90
2019-05-14T01:22:51.631Z,99.90
2019-05-14T01:25:23.340Z,99.90
2019-05-14T01:27:51.843Z,99.90
2019-05-14T01:30:21.425Z,99.90
2019-05-14T01:32:51.173Z,99.90
2019-05-14T01:35:22.026Z,99.90
2019-05-14T01:37:51.990Z,99.90
2019-05-14T01:40:21.852Z,99.90
2019-05-14T01:42:52.207Z,99.90
2019-05-14T01:45:27.235Z,99.90
2019-05-14T01:47:52.072Z,99.90
2019-05-14T01:50:21.543Z,99.90
2019-05-14T01:52:52.020Z,99.90
2019-05-14T01:55:21.916Z,99.90
2019-05-14T01:57:51.784Z,99.90
2019-05-14T02:00:22.135Z,99.90
2019-05-14T02:02:52.449Z,99.90
2019-05-14T02:05:21.757Z,99.90
2019-05-14T02:07:52.421Z,99.90
2019-05-14T02:10:22.072Z,99.90
2019-05-14T02:12:51.589Z,99.90
2019-05-14T02:15:21.394Z,99.90
2019-05-14T02:17:51.735Z,99.90
2019-05-14T02:20:21.599Z,99.90
2019-05-14T02:22:52.266Z,99.90
2019-05-14T02:25:21.645Z,99.90
2019-05-14T02:27:51.929Z,99.90
2019-05-14T02:30:28.451Z,99.90
2019-05-14T02:32:50.467Z,99.90
2019-05-14T02:35:20.208Z,99.90
2019-05-14T02:37:50.505Z,99.90
2019-05-14T02:40:20.221Z,99.90
2019-05-14T02:42:49.724Z,99.90
2019-05-14T02:45:19.717Z,99.90
2019-05-14T02:47:50.358Z,99.90
2019-05-14T02:50:20.263Z,99.90
2019-05-14T02:52:49.680Z,99.90
2019-05-14T02:55:19.398Z,99.90
2019-05-14T02:57:50.112Z,99.90
2019-05-14T03:00:19.355Z,99.90
2019-05-14T03:02:49.436Z,99.90
2019-05-14T03:05:19.259Z,99.90
2019-05-14T03:07:50.066Z,99.90
2019-05-14T03:10:19.467Z,99.90
2019-05-14T03:12:50.010Z,99.90
2019-05-14T03:15:20.062Z,99.90
2019-05-14T03:17:49.394Z,99.90
2019-05-14T03:20:19.591Z,99.90
2019-05-14T03:23:02.563Z,99.90
2019-05-14T03:25:19.385Z,99.90
2019-05-14T03:27:49.634Z,99.90
2019-05-14T03:30:22.896Z,99.90
2019-05-14T03:32:52.858Z,99.90
2019-05-14T03:35:24.508Z,99.90
2019-05-14T03:37:49.802Z,99.90
2019-05-14T03:40:19.458Z,99.90
2019-05-14T03:42:49.045Z,99.90
2019-05-14T03:45:19.485Z,99.90
2019-05-14T03:47:50.580Z,99.90
2019-05-14T03:50:19.211Z,99.90
2019-05-14T03:52:49.849Z,99.90
2019-05-14T03:55:20.157Z,99.90
2019-05-14T03:57:49.983Z,99.90
2019-05-14T04:00:21.505Z,99.90
2019-05-14T04:02:49.897Z,99.90
2019-05-14T04:05:22.384Z,99.90
2019-05-14T04:07:50.227Z,99.90
2019-05-14T04:10:19.631Z,99.90
2019-05-14T04:12:49.641Z,99.90
2019-05-14T04:15:19.575Z,99.90
2019-05-14T04:17:50.248Z,99.90
2019-05-14T04:20:19.802Z,99.90
2019-05-14T04:22:51.595Z,99.90
2019-05-14T04:25:20.001Z,99.90
2019-05-14T04:27:51.830Z,99.90
2019-05-14T04:30:24.076Z,99.90
2019-05-14T04:32:53.441Z,99.90
2019-05-14T04:35:21.952Z,99.90
2019-05-14T04:37:50.420Z,99.90
2019-05-14T04:40:19.140Z,99.90
2019-05-14T04:42:50.394Z,99.90
2019-05-14T04:45:19.753Z,99.90
2019-05-14T04:47:49.815Z,99.90
2019-05-14T04:50:20.069Z,99.90
2019-05-14T04:52:49.419Z,99.90
2019-05-14T04:55:20.398Z,99.90
2019-05-14T04:57:50.007Z,99.90
2019-05-14T05:00:19.889Z,99.90
2019-05-14T05:02:49.736Z,99.90
2019-05-14T05:05:19.635Z,99.90
2019-05-14T05:07:49.155Z,99.90
2019-05-14T05:10:19.330Z,99.90
2019-05-14T05:12:49.288Z,99.90
2019-05-14T05:15:19.749Z,99.90
2019-05-14T05:17:52.653Z,99.90
2019-05-14T05:20:19.299Z,99.90
2019-05-14T05:22:48.666Z,99.90
2019-05-14T05:25:18.921Z,99.90
2019-05-14T05:27:48.685Z,99.90
2019-05-14T05:30:18.976Z,99.90
2019-05-14T05:32:49.478Z,99.90
2019-05-14T05:35:18.593Z,99.90
2019-05-14T05:37:49.101Z,99.90
2019-05-14T05:40:19.762Z,99.90
2019-05-14T05:42:49.009Z,99.90
2019-05-14T05:45:18.580Z,99.90
2019-05-14T05:47:57.167Z,99.90
2019-05-14T05:50:19.353Z,99.90
2019-05-14T05:52:49.826Z,99.90
2019-05-14T05:55:19.162Z,99.90
2019-05-14T05:57:49.205Z,99.90
2019-05-14T06:00:29.231Z,99.90
2019-05-14T06:02:59.054Z,99.90
2019-05-14T06:05:29.219Z,99.90
2019-05-14T06:07:59.072Z,99.90
2019-05-14T06:10:29.204Z,99.90
2019-05-14T06:12:58.519Z,99.90
2019-05-14T06:15:44.178Z,99.90
2019-05-14T06:18:21.484Z,99.90
2019-05-14T06:20:49.178Z,99.90
2019-05-14T06:23:18.936Z,99.90
2019-05-14T06:25:49.129Z,99.90
2019-05-14T06:28:20.546Z,99.90
2019-05-14T06:30:48.434Z,99.90
2019-05-14T06:33:19.428Z,99.90
2019-05-14T06:35:48.585Z,99.90
2019-05-14T06:38:18.551Z,99.90
2019-05-14T06:40:48.992Z,99.90
2019-05-14T06:43:19.023Z,99.90
2019-05-14T06:45:49.601Z,99.90
2019-05-14T06:48:29.767Z,99.90
2019-05-14T06:50:50.355Z,99.90
2019-05-14T06:53:19.467Z,99.70
2019-05-14T06:55:48.459Z,99.20
2019-05-14T06:58:20.244Z,98.70
2019-05-14T07:00:49.335Z,98.40
2019-05-14T07:03:18.030Z,98.00
2019-05-14T07:05:49.097Z,97.50
2019-05-14T07:08:18.803Z,97.10
2019-05-14T07:10:48.607Z,96.60
2019-05-14T07:13:18.883Z,96.30
2019-05-14T07:15:49.001Z,95.60
2019-05-14T07:18:19.032Z,95.00
2019-05-14T07:20:48.522Z,94.50
2019-05-14T07:23:19.408Z,94.20
2019-05-14T07:25:48.318Z,94.00
2019-05-14T07:28:19.128Z,93.70
2019-05-14T07:30:48.575Z,93.50
2019-05-14T07:33:18.285Z,93.00
2019-05-14T07:35:48.781Z,93.10
2019-05-14T07:38:19.391Z,92.90
2019-05-14T07:40:49.395Z,92.70
2019-05-14T07:43:18.866Z,92.20
2019-05-14T07:45:49.218Z,92.00
2019-05-14T07:48:19.009Z,91.90
2019-05-14T07:50:51.645Z,91.70
2019-05-14T07:53:18.074Z,91.50
2019-05-14T07:55:49.078Z,91.20
2019-05-14T07:58:19.653Z,91.10
2019-05-14T08:00:49.192Z,90.80
2019-05-14T08:03:19.036Z,90.50
2019-05-14T08:05:48.401Z,90.20
2019-05-14T08:08:18.738Z,90.20
2019-05-14T08:10:48.655Z,90.10
2019-05-14T08:13:19.060Z,89.90
2019-05-14T08:15:49.003Z,89.90
2019-05-14T08:18:18.901Z,89.10
2019-05-14T08:20:48.641Z,89.40
2019-05-14T08:23:18.435Z,89.00
2019-05-14T08:25:48.175Z,88.60
2019-05-14T08:28:18.481Z,87.80
2019-05-14T08:30:48.944Z,87.70
2019-05-14T08:33:18.443Z,87.40
2019-05-14T08:35:48.894Z,87.30
2019-05-14T08:38:18.438Z,86.90
2019-05-14T08:40:48.861Z,86.70
2019-05-14T08:43:18.534Z,86.10
2019-05-14T08:45:48.765Z,85.60
2019-05-14T08:48:18.985Z,85.70
2019-05-14T08:50:48.136Z,84.50
2019-05-14T08:53:18.614Z,84.40
2019-05-14T08:55:48.701Z,84.10
2019-05-14T08:58:20.047Z,84.00
2019-05-14T09:00:48.259Z,83.70
2019-05-14T09:03:19.030Z,82.80
2019-05-14T09:05:49.000Z,82.50
2019-05-14T09:08:19.181Z,81.50
2019-05-14T09:10:49.692Z,80.00
2019-05-14T09:13:18.450Z,77.70
2019-05-14T09:15:48.925Z,75.70
2019-05-14T09:18:18.492Z,76.10
2019-05-14T09:20:48.845Z,74.00
2019-05-14T09:23:19.027Z,73.90
2019-05-14T09:25:52.374Z,73.50
2019-05-14T09:28:18.927Z,71.70
2019-05-14T09:30:48.773Z,69.80
2019-05-14T09:33:18.941Z,69.20
2019-05-14T09:35:49.316Z,68.10
2019-05-14T09:38:18.845Z,66.70
2019-05-14T09:40:48.878Z,66.90
2019-05-14T09:43:18.103Z,65.70
2019-05-14T09:45:48.168Z,65.50
2019-05-14T09:48:18.037Z,66.50
2019-05-14T09:50:48.742Z,66.50
2019-05-14T09:53:18.144Z,66.90
2019-05-14T09:55:48.932Z,66.50
2019-05-14T09:58:20.041Z,64.70
2019-05-14T10:00:48.508Z,63.50
2019-05-14T10:03:19.178Z,63.70
2019-05-14T10:05:49.950Z,63.30
2019-05-14T10:08:19.329Z,61.20
2019-05-14T10:10:48.823Z,60.20
2019-05-14T10:13:17.362Z,60.40
2019-05-14T10:15:45.762Z,61.70
2019-05-14T10:18:14.167Z,61.00
2019-05-14T10:20:46.035Z,62.10
2019-05-14T10:23:12.902Z,60.00
2019-05-14T10:25:42.541Z,57.90
2019-05-14T10:28:11.059Z,56.70
2019-05-14T10:30:39.450Z,55.70
2019-05-14T10:33:14.382Z,56.00
2019-05-14T10:35:39.154Z,54.70
2019-05-14T10:38:08.814Z,54.60
2019-05-14T10:40:38.431Z,54.70
2019-05-14T10:43:09.109Z,54.90
2019-05-14T10:45:38.475Z,52.20
2019-05-14T10:48:09.524Z,52.50
2019-05-14T10:50:55.145Z,53.30
2019-05-14T10:53:09.001Z,54.20
2019-05-14T10:55:38.697Z,54.50
2019-05-14T10:58:08.956Z,53.50
2019-05-14T11:00:41.552Z,52.90
2019-05-14T11:03:07.661Z,54.30
2019-05-14T11:05:40.660Z,53.10
2019-05-14T11:08:06.330Z,52.90
2019-05-14T11:10:34.866Z,51.60
2019-05-14T11:13:03.336Z,50.40
2019-05-14T11:15:32.092Z,48.80
2019-05-14T11:18:00.815Z,48.20
2019-05-14T11:20:31.167Z,49.80
2019-05-14T11:22:59.835Z,50.20
2019-05-14T11:25:28.751Z,49.50
2019-05-14T11:27:58.676Z,49.00
2019-05-14T11:30:28.857Z,49.10
2019-05-14T11:32:58.438Z,49.40
2019-05-14T11:35:28.759Z,50.60
2019-05-14T11:37:58.842Z,49.90
2019-05-14T11:40:29.310Z,48.50
2019-05-14T11:42:59.267Z,49.50
2019-05-14T11:45:27.960Z,47.60
2019-05-14T11:47:58.302Z,49.10
2019-05-14T11:50:28.698Z,49.10
2019-05-14T11:52:58.484Z,47.40
2019-05-14T11:55:27.503Z,47.50
2019-05-14T11:57:58.030Z,47.00
2019-05-14T12:00:29.399Z,46.40
2019-05-14T12:02:58.654Z,46.50
2019-05-14T12:05:26.597Z,46.50
2019-05-14T12:07:54.983Z,45.80
2019-05-14T12:10:23.386Z,45.40
2019-05-14T12:12:51.879Z,44.90
2019-05-14T12:15:20.438Z,45.40
2019-05-14T12:17:51.136Z,44.80
2019-05-14T12:20:19.338Z,45.60
2019-05-14T12:22:48.748Z,46.60
2019-05-14T12:25:19.118Z,45.40
2019-05-14T12:27:49.634Z,44.60
2019-05-14T12:30:19.702Z,43.50
2019-05-14T12:32:50.099Z,43.40
2019-05-14T12:35:19.806Z,43.90
2019-05-14T12:37:48.594Z,44.20
2019-05-14T12:40:19.367Z,43.40
2019-05-14T12:42:49.897Z,43.00
2019-05-14T12:45:19.065Z,44.60
2019-05-14T12:47:50.036Z,44.00
2019-05-14T12:50:18.072Z,42.90
2019-05-14T12:52:48.563Z,42.40
2019-05-14T12:55:19.034Z,42.40
2019-05-14T12:57:48.656Z,42.20
2019-05-14T13:00:18.065Z,42.10
2019-05-14T13:02:46.472Z,42.50
2019-05-14T13:05:15.186Z,42.80
2019-05-14T13:07:43.721Z,43.30
2019-05-14T13:10:12.807Z,43.20
2019-05-14T13:12:41.529Z,44.80
2019-05-14T13:15:10.646Z,44.60
2019-05-14T13:17:39.178Z,43.50
2019-05-14T13:20:13.180Z,41.70
2019-05-14T13:22:45.565Z,41.40
2019-05-14T13:25:10.952Z,41.80
2019-05-14T13:27:39.753Z,42.00
2019-05-14T13:30:09.230Z,41.00
2019-05-14T13:32:39.424Z,42.40
2019-05-14T13:35:13.503Z,42.70
2019-05-14T13:37:40.259Z,41.40
2019-05-14T13:40:09.497Z,41.70
2019-05-14T13:42:39.940Z,42.00
2019-05-14T13:45:10.274Z,42.20
2019-05-14T13:47:38.941Z,42.60
2019-05-14T13:50:08.851Z,42.90
2019-05-14T13:52:40.341Z,42.30
2019-05-14T13:55:09.647Z,40.90
2019-05-14T13:57:39.894Z,40.40
2019-05-14T14:00:11.943Z,40.30
2019-05-14T14:02:39.967Z,40.50
2019-05-14T14:05:08.838Z,41.10
2019-05-14T14:07:39.559Z,40.80
2019-05-14T14:10:08.926Z,41.00
2019-05-14T14:12:40.409Z,41.50
2019-05-14T14:15:09.829Z,43.00
2019-05-14T14:17:39.307Z,42.80
2019-05-14T14:20:08.593Z,41.50
2019-05-14T14:22:40.044Z,41.20
2019-05-14T14:25:08.995Z,40.00
2019-05-14T14:27:40.680Z,39.30
2019-05-14T14:30:09.619Z,39.40
2019-05-14T14:32:40.614Z,39.70
2019-05-14T14:35:08.922Z,38.80
2019-05-14T14:37:39.914Z,38.10
2019-05-14T14:40:10.115Z,38.10
2019-05-14T14:42:39.963Z,38.30
2019-05-14T14:45:08.826Z,38.30
2019-05-14T14:47:39.354Z,38.30
2019-05-14T14:50:09.337Z,38.40
2019-05-14T14:52:37.756Z,39.10
2019-05-14T14:55:07.295Z,38.30
2019-05-14T14:57:36.053Z,37.50
2019-05-14T15:00:09.753Z,36.60
2019-05-14T15:02:40.799Z,36.20
2019-05-14T15:05:12.886Z,37.10
2019-05-14T15:07:40.839Z,38.50
2019-05-14T15:10:08.815Z,39.50
2019-05-14T15:12:39.804Z,38.90
2019-05-14T15:15:07.678Z,38.60
2019-05-14T15:17:38.971Z,37.90
2019-05-14T15:20:09.945Z,39.00
2019-05-14T15:22:37.199Z,38.50
2019-05-14T15:25:08.817Z,38.40
2019-05-14T15:27:38.538Z,38.90
2019-05-14T15:30:07.966Z,39.10
2019-05-14T15:32:36.529Z,39.10
2019-05-14T15:35:10.723Z,39.60
2019-05-14T15:37:42.821Z,40.40
2019-05-14T15:40:09.279Z,41.50
2019-05-14T15:42:39.475Z,43.30
2019-05-14T15:45:09.139Z,43.00
2019-05-14T15:47:38.909Z,42.30
2019-05-14T15:50:09.402Z,41.00
2019-05-14T15:52:39.404Z,40.80
2019-05-14T15:55:09.266Z,40.00
2019-05-14T15:57:39.775Z,38.60
2019-05-14T16:00:09.843Z,37.60
2019-05-14T16:02:39.535Z,37.20
2019-05-14T16:05:10.183Z,36.90
2019-05-14T16:07:39.336Z,36.80
2019-05-14T16:10:08.739Z,36.90
2019-05-14T16:12:39.941Z,36.60
2019-05-14T16:15:09.076Z,37.10
2019-05-14T16:17:48.791Z,37.10
2019-05-14T16:20:08.975Z,36.60
2019-05-14T16:22:39.893Z,36.50
2019-05-14T16:25:09.650Z,36.60
2019-05-14T16:27:39.657Z,37.20
2019-05-14T16:30:10.241Z,38.70
2019-05-14T16:32:39.516Z,39.80
2019-05-14T16:35:08.999Z,40.40
2019-05-14T16:37:39.273Z,41.30
2019-05-14T16:40:09.217Z,41.20
2019-05-14T16:42:39.651Z,41.20
2019-05-14T16:45:08.857Z,41.40
2019-05-14T16:47:39.823Z,41.10
2019-05-14T16:50:09.133Z,40.30
2019-05-14T16:52:41.654Z,40.20
2019-05-14T16:55:20.307Z,40.20
2019-05-14T16:57:38.758Z,40.20
2019-05-14T17:00:09.864Z,40.60
2019-05-14T17:02:38.472Z,39.60
2019-05-14T17:05:09.201Z,38.70
2019-05-14T17:07:38.503Z,38.00
2019-05-14T17:10:08.514Z,37.90
2019-05-14T17:12:49.652Z,38.50
2019-05-14T17:15:09.529Z,39.30
2019-05-14T17:17:37.551Z,40.40
2019-05-14T17:20:08.270Z,41.40
2019-05-14T17:22:36.304Z,42.20
2019-05-14T17:25:05.055Z,43.20
2019-05-14T17:27:33.539Z,43.80
2019-05-14T17:30:02.310Z,44.30
2019-05-14T17:32:30.709Z,44.60
2019-05-14T17:34:59.099Z,44.50
2019-05-14T17:37:28.599Z,43.60
2019-05-14T17:39:58.205Z,41.90
2019-05-14T17:42:28.497Z,40.30
2019-05-14T17:44:58.906Z,39.30
2019-05-14T17:47:29.066Z,38.90
2019-05-14T17:49:59.086Z,38.40
2019-05-14T17:52:30.112Z,37.50
2019-05-14T17:55:01.437Z,36.00
2019-05-14T17:57:34.616Z,35.70
2019-05-14T18:00:00.331Z,34.50
2019-05-14T18:02:28.845Z,34.20
2019-05-14T18:04:59.331Z,33.80
2019-05-14T18:07:28.619Z,32.90
2019-05-14T18:09:58.852Z,32.70
2019-05-14T18:12:30.523Z,33.00
2019-05-14T18:14:58.871Z,33.50
2019-05-14T18:17:29.649Z,34.60
2019-05-14T18:19:58.885Z,36.20
2019-05-14T18:22:28.673Z,37.80
2019-05-14T18:24:59.239Z,39.30
2019-05-14T18:27:29.323Z,40.50
2019-05-14T18:29:59.272Z,41.60
2019-05-14T18:32:28.150Z,42.40
2019-05-14T18:34:58.152Z,43.70
2019-05-14T18:37:28.869Z,44.80
2019-05-14T18:39:58.646Z,45.70
2019-05-14T18:42:29.548Z,46.40
2019-05-14T18:44:58.990Z,47.20
2019-05-14T18:47:29.085Z,48.10
2019-05-14T18:49:59.540Z,48.80
2019-05-14T18:52:29.624Z,49.50
2019-05-14T18:54:58.972Z,50.20
2019-05-14T18:57:28.652Z,50.70
2019-05-14T18:59:57.359Z,51.30
2019-05-14T19:02:29.086Z,52.10
2019-05-14T19:04:57.946Z,52.90
2019-05-14T19:07:28.768Z,53.60
2019-05-14T19:09:58.679Z,54.00
2019-05-14T19:12:28.982Z,54.40
2019-05-14T19:14:59.017Z,55.00
2019-05-14T19:17:28.357Z,55.50
2019-05-14T19:19:58.883Z,55.80
2019-05-14T19:22:28.808Z,56.50
2019-05-14T19:24:58.700Z,56.90
2019-05-14T19:27:28.598Z,57.60
2019-05-14T19:29:59.170Z,58.00
2019-05-14T19:32:28.290Z,58.20
2019-05-14T19:34:57.011Z,58.40
2019-05-14T19:37:25.410Z,58.70
2019-05-14T19:39:53.816Z,59.10
2019-05-14T19:42:22.450Z,59.30
2019-05-14T19:44:50.839Z,59.20
2019-05-14T19:47:19.261Z,59.50
2019-05-14T19:49:49.122Z,59.90
2019-05-14T19:52:18.483Z,60.60
2019-05-14T19:54:48.976Z,61.00
2019-05-14T19:57:18.489Z,61.40
2019-05-14T19:59:49.795Z,62.10
2019-05-14T20:02:18.512Z,62.40
2019-05-14T20:04:46.982Z,62.40
2019-05-14T20:07:15.434Z,62.60
2019-05-14T20:09:43.835Z,63.40
2019-05-14T20:12:12.302Z,64.60
2019-05-14T20:14:40.792Z,65.70
2019-05-14T20:17:09.175Z,67.00
2019-05-14T20:19:39.607Z,67.10
2019-05-14T20:22:07.688Z,67.70
2019-05-14T20:24:36.100Z,67.60
2019-05-14T20:27:08.535Z,67.50
2019-05-14T20:29:34.910Z,67.90
2019-05-14T20:32:03.298Z,68.60
2019-05-14T20:34:31.931Z,69.30
2019-05-14T20:37:00.375Z,70.50
2019-05-14T20:39:29.436Z,71.10
2019-05-14T20:41:58.946Z,71.90
2019-05-14T20:44:27.980Z,72.40
2019-05-14T20:46:58.350Z,73.50
2019-05-14T20:49:28.418Z,73.80
2019-05-14T20:51:59.370Z,74.50
2019-05-14T20:54:28.963Z,75.70
2019-05-14T20:56:58.603Z,77.50
2019-05-14T20:59:28.256Z,79.20
2019-05-14T21:01:58.779Z,80.10
2019-05-14T21:04:28.179Z,82.00
2019-05-14T21:06:58.622Z,82.90
2019-05-14T21:09:28.802Z,84.40
2019-05-14T21:11:57.004Z,83.90
2019-05-14T21:14:25.456Z,85.30
2019-05-14T21:16:53.887Z,86.20
2019-05-14T21:19:22.355Z,87.10
2019-05-14T21:21:50.835Z,87.80
2019-05-14T21:24:21.864Z,88.80
2019-05-14T21:26:49.351Z,89.40
2019-05-14T21:29:17.756Z,90.00
2019-05-14T21:31:46.227Z,90.20
2019-05-14T21:34:14.625Z,90.70
2019-05-14T21:36:44.667Z,91.30
2019-05-14T21:39:13.191Z,91.70
2019-05-14T21:41:41.711Z,92.10
2019-05-14T21:44:10.096Z,92.60
2019-05-14T21:46:39.897Z,92.90
2019-05-14T21:49:11.115Z,93.30
2019-05-14T21:51:39.318Z,93.50
2019-05-14T21:54:09.500Z,93.70
2019-05-14T21:56:38.718Z,94.00
2019-05-14T21:59:09.498Z,94.20
2019-05-14T22:01:39.273Z,94.30
2019-05-14T22:04:11.178Z,94.50
2019-05-14T22:06:41.160Z,94.80
2019-05-14T22:09:08.809Z,95.10
2019-05-14T22:11:39.272Z,95.20
2019-05-14T22:14:08.019Z,95.30
2019-05-14T22:16:38.060Z,95.40
2019-05-14T22:19:08.476Z,95.50
2019-05-14T22:21:38.580Z,95.60
2019-05-14T22:24:07.394Z,95.60
2019-05-14T22:26:35.799Z,95.60
2019-05-14T22:29:04.194Z,95.80
2019-05-14T22:31:32.891Z,95.90
2019-05-14T22:34:01.313Z,96.20
2019-05-14T22:36:29.709Z,96.70
2019-05-14T22:38:58.116Z,97.10
2019-05-14T22:41:28.953Z,97.40
2019-05-14T22:43:59.842Z,97.80
2019-05-14T22:46:27.104Z,98.10
2019-05-14T22:48:55.603Z,98.50
2019-05-14T22:51:24.008Z,98.80
2019-05-14T22:53:52.435Z,99.10
2019-05-14T22:56:23.642Z,99.40
2019-05-14T22:58:52.042Z,99.60
2019-05-14T23:01:20.602Z,99.90
2019-05-14T23:03:49.248Z,99.90
2019-05-14T23:06:18.757Z,99.90
2019-05-14T23:08:48.641Z,99.90
2019-05-14T23:11:19.512Z,99.90
2019-05-14T23:13:48.791Z,99.90
2019-05-14T23:16:31.043Z,99.90
2019-05-14T23:18:48.778Z,99.90
2019-05-14T23:21:17.363Z,99.90
2019-05-14T23:23:45.790Z,99.90
2019-05-14T23:26:14.212Z,99.90
2019-05-14T23:28:45.930Z,99.90
2019-05-14T23:31:13.296Z,99.90
2019-05-14T23:33:41.928Z,99.90
2019-05-14T23:36:10.751Z,99.90
2019-05-14T23:38:39.314Z,99.90
2019-05-14T23:41:08.724Z,99.90
2019-05-14T23:43:39.213Z,99.90
2019-05-14T23:46:09.423Z,99.90
2019-05-14T23:48:39.202Z,99.90
2019-05-14T23:51:08.175Z,99.90
2019-05-14T23:53:38.794Z,99.90
2019-05-14T23:56:08.688Z,99.90
2019-05-14T23:58:37.117Z,99.90
